Chalets de Bairoa, Puerto Rico
Current Conditions -  °F | °C
As of 4:56 PM on Sunday 21 Dec 2014 (Local Time) from TJSJ Reporting Station
Scattered Clouds Scattered Clouds  
Wind Chill: 27°   Ceiling: Unl
Heat Index: 29°   Visibility: 10mi
Dew Point: 19°   Wind: 12mph
Humidity: 62%   Direction: 70°ENE
Pressure: 30.02"   Gusts: NA
Location:  18.2351°N, 66.0374°W
Report Text: TJSJ 212056Z 07010KT 10SM FEW026 SCT060 27/19 A3002 RMK AO2 SLP166 T02720194 55006
Loading
Personal Weather Stations






























Interactive Weather Map New forecast layout! Learn more

10-Day Weather Forecast

Advertisements
Track Severe Weather on mobile